ウランバートル の空港の天気 - METARとTAF

チンギスハーン国際空港 ( ZMUB / ULN ) - モンゴル ウランバートル
飛行場実況気象(Metar)
観測時間01/22 01:30 ULAT (01/21 17:30 UTC)
風向・風速西北西 3m/s
視程10km以上
天気現象
なし
気温-35℃
湿度54%
気圧1025hPa
METARZMUB 211730Z 29003MPS CAVOK M35/M41 Q1025 NOSIG RMK QFE660.5 55
過去の天気等 Google飛行場航空写真 Wunderground天気予報

過去48時間のMETAR

飛行場予報(TAF)
発表時間: 1/22 00:40 ULAT (1/21 16:40 UTC)
予報対象時間: 22日2時 ULAT ~ 23日8時 ULAT
風向・風速不定 2m/s
視程10km以上
全天の4割程度の雲 雲底高度 3,050m
22日4時 ULAT ~ 22日6時 ULAT に徐々に
視程6,000m
22日8時 ULAT ~ 22日10時 ULAT に徐々に
視程3,000m
天気現象
22日13時 ULAT ~ 22日15時 ULAT に徐々に
視程6,000m
TAF ZMUB 211640Z 2118/2224 VRB02MPS 9999 SCT100 TNM41/2123Z TXM28/2207Z
BECMG 2120/2122 6000
BECMG 2200/2202 3000 FU
BECMG 2205/2207 6000